sensor_id;sensor_type;location;lat;lon;timestamp;P1;durP1;ratioP1;P2;durP2;ratioP2
253;SDS011;590;48.772;8.846;2023-08-30T00:01:26;5.47;;;5.17;;
253;SDS011;590;48.772;8.846;2023-08-30T00:03:55;5.00;;;4.70;;
253;SDS011;590;48.772;8.846;2023-08-30T00:06:23;5.80;;;5.50;;
253;SDS011;590;48.772;8.846;2023-08-30T00:08:51;5.13;;;4.83;;
253;SDS011;590;48.772;8.846;2023-08-30T00:11:20;6.00;;;5.70;;
253;SDS011;590;48.772;8.846;2023-08-30T00:13:48;7.80;;;7.40;;
253;SDS011;590;48.772;8.846;2023-08-30T00:16:16;7.17;;;6.77;;
253;SDS011;590;48.772;8.846;2023-08-30T00:18:44;8.70;;;7.47;;
253;SDS011;590;48.772;8.846;2023-08-30T00:21:13;6.80;;;6.40;;
253;SDS011;590;48.772;8.846;2023-08-30T00:23:43;5.43;;;5.13;;
253;SDS011;590;48.772;8.846;2023-08-30T00:26:11;5.40;;;5.10;;
253;SDS011;590;48.772;8.846;2023-08-30T00:28:39;4.37;;;4.07;;
253;SDS011;590;48.772;8.846;2023-08-30T00:31:07;4.30;;;4.00;;
253;SDS011;590;48.772;8.846;2023-08-30T00:33:35;5.73;;;5.43;;
253;SDS011;590;48.772;8.846;2023-08-30T00:36:04;5.30;;;5.00;;
253;SDS011;590;48.772;8.846;2023-08-30T00:38:33;4.90;;;4.60;;
253;SDS011;590;48.772;8.846;2023-08-30T00:41:01;5.27;;;4.97;;
253;SDS011;590;48.772;8.846;2023-08-30T00:43:29;5.70;;;5.40;;
253;SDS011;590;48.772;8.846;2023-08-30T00:45:57;5.33;;;5.03;;
253;SDS011;590;48.772;8.846;2023-08-30T00:48:25;6.60;;;6.20;;
253;SDS011;590;48.772;8.846;2023-08-30T00:50:54;5.10;;;4.80;;
253;SDS011;590;48.772;8.846;2023-08-30T00:53:22;4.70;;;4.40;;
253;SDS011;590;48.772;8.846;2023-08-30T00:55:52;5.30;;;5.00;;
253;SDS011;590;48.772;8.846;2023-08-30T00:58:20;5.30;;;5.00;;
253;SDS011;590;48.772;8.846;2023-08-30T01:00:48;5.63;;;5.33;;
253;SDS011;590;48.772;8.846;2023-08-30T01:03:17;5.50;;;5.20;;
253;SDS011;590;48.772;8.846;2023-08-30T01:05:45;5.83;;;5.53;;
253;SDS011;590;48.772;8.846;2023-08-30T01:08:13;6.00;;;5.70;;
253;SDS011;590;48.772;8.846;2023-08-30T01:10:44;6.17;;;5.70;;
253;SDS011;590;48.772;8.846;2023-08-30T01:13:21;6.23;;;5.90;;
253;SDS011;590;48.772;8.846;2023-08-30T01:15:50;5.70;;;5.40;;
253;SDS011;590;48.772;8.846;2023-08-30T01:18:22;4.90;;;4.60;;
253;SDS011;590;48.772;8.846;2023-08-30T01:20:56;5.23;;;4.93;;
253;SDS011;590;48.772;8.846;2023-08-30T01:23:29;4.97;;;4.67;;
253;SDS011;590;48.772;8.846;2023-08-30T01:26:08;5.90;;;5.50;;
253;SDS011;590;48.772;8.846;2023-08-30T01:28:42;6.77;;;6.07;;
253;SDS011;590;48.772;8.846;2023-08-30T01:31:10;5.10;;;4.80;;
253;SDS011;590;48.772;8.846;2023-08-30T01:33:39;5.63;;;4.13;;
253;SDS011;590;48.772;8.846;2023-08-30T01:36:08;5.60;;;5.30;;
253;SDS011;590;48.772;8.846;2023-08-30T01:38:36;5.30;;;5.00;;
253;SDS011;590;48.772;8.846;2023-08-30T01:41:06;5.80;;;5.50;;
253;SDS011;590;48.772;8.846;2023-08-30T01:43:34;5.27;;;4.97;;
253;SDS011;590;48.772;8.846;2023-08-30T01:46:05;4.83;;;4.53;;
253;SDS011;590;48.772;8.846;2023-08-30T01:48:34;4.10;;;3.87;;
253;SDS011;590;48.772;8.846;2023-08-30T01:51:03;6.87;;;4.33;;
253;SDS011;590;48.772;8.846;2023-08-30T01:53:32;5.33;;;5.03;;
253;SDS011;590;48.772;8.846;2023-08-30T01:56:00;4.40;;;4.10;;
253;SDS011;590;48.772;8.846;2023-08-30T01:58:28;4.70;;;4.40;;
253;SDS011;590;48.772;8.846;2023-08-30T02:00:56;7.50;;;4.77;;
253;SDS011;590;48.772;8.846;2023-08-30T02:03:26;5.50;;;5.20;;
253;SDS011;590;48.772;8.846;2023-08-30T02:05:57;5.70;;;5.40;;
253;SDS011;590;48.772;8.846;2023-08-30T02:08:33;4.90;;;4.60;;
253;SDS011;590;48.772;8.846;2023-08-30T02:11:07;6.93;;;5.80;;
253;SDS011;590;48.772;8.846;2023-08-30T02:13:39;5.07;;;4.77;;
253;SDS011;590;48.772;8.846;2023-08-30T02:16:08;4.90;;;4.60;;
253;SDS011;590;48.772;8.846;2023-08-30T02:18:38;6.90;;;4.87;;
253;SDS011;590;48.772;8.846;2023-08-30T02:21:07;5.10;;;4.80;;
253;SDS011;590;48.772;8.846;2023-08-30T02:23:35;5.50;;;5.20;;
253;SDS011;590;48.772;8.846;2023-08-30T02:26:03;4.90;;;4.60;;
253;SDS011;590;48.772;8.846;2023-08-30T02:28:31;4.83;;;4.53;;
253;SDS011;590;48.772;8.846;2023-08-30T02:31:00;4.97;;;4.40;;
253;SDS011;590;48.772;8.846;2023-08-30T02:33:28;4.53;;;4.23;;
253;SDS011;590;48.772;8.846;2023-08-30T02:35:57;5.00;;;4.70;;
253;SDS011;590;48.772;8.846;2023-08-30T02:38:25;5.13;;;4.83;;
253;SDS011;590;48.772;8.846;2023-08-30T02:40:54;5.00;;;4.70;;
253;SDS011;590;48.772;8.846;2023-08-30T02:43:22;4.93;;;4.63;;
253;SDS011;590;48.772;8.846;2023-08-30T02:45:51;4.87;;;4.57;;
253;SDS011;590;48.772;8.846;2023-08-30T02:48:20;4.83;;;4.53;;
253;SDS011;590;48.772;8.846;2023-08-30T02:50:48;5.73;;;5.43;;
253;SDS011;590;48.772;8.846;2023-08-30T02:53:17;5.67;;;5.37;;
253;SDS011;590;48.772;8.846;2023-08-30T02:55:46;5.40;;;5.10;;
253;SDS011;590;48.772;8.846;2023-08-30T02:58:14;5.23;;;4.93;;
253;SDS011;590;48.772;8.846;2023-08-30T03:00:42;5.70;;;5.40;;
253;SDS011;590;48.772;8.846;2023-08-30T03:03:10;6.00;;;5.70;;
253;SDS011;590;48.772;8.846;2023-08-30T03:05:38;5.13;;;4.83;;
253;SDS011;590;48.772;8.846;2023-08-30T03:08:06;5.50;;;5.20;;
253;SDS011;590;48.772;8.846;2023-08-30T03:10:36;5.13;;;4.83;;
253;SDS011;590;48.772;8.846;2023-08-30T03:13:04;5.20;;;4.90;;
253;SDS011;590;48.772;8.846;2023-08-30T03:15:32;4.60;;;4.30;;
253;SDS011;590;48.772;8.846;2023-08-30T03:18:01;4.77;;;4.47;;
253;SDS011;590;48.772;8.846;2023-08-30T03:20:29;5.17;;;4.87;;
253;SDS011;590;48.772;8.846;2023-08-30T03:22:57;4.17;;;3.93;;
253;SDS011;590;48.772;8.846;2023-08-30T03:25:28;5.20;;;4.90;;
253;SDS011;590;48.772;8.846;2023-08-30T03:27:58;5.30;;;5.00;;
253;SDS011;590;48.772;8.846;2023-08-30T03:30:26;5.00;;;4.70;;
253;SDS011;590;48.772;8.846;2023-08-30T03:32:54;5.20;;;4.90;;
253;SDS011;590;48.772;8.846;2023-08-30T03:35:22;4.90;;;4.60;;
253;SDS011;590;48.772;8.846;2023-08-30T03:37:50;5.70;;;5.40;;
253;SDS011;590;48.772;8.846;2023-08-30T03:40:18;6.67;;;6.27;;
253;SDS011;590;48.772;8.846;2023-08-30T03:42:46;5.37;;;5.07;;
253;SDS011;590;48.772;8.846;2023-08-30T03:45:15;5.90;;;5.60;;
253;SDS011;590;48.772;8.846;2023-08-30T03:47:43;5.50;;;5.20;;
253;SDS011;590;48.772;8.846;2023-08-30T03:50:11;5.60;;;5.30;;
253;SDS011;590;48.772;8.846;2023-08-30T03:52:39;7.13;;;5.20;;
253;SDS011;590;48.772;8.846;2023-08-30T03:55:08;6.40;;;6.00;;
253;SDS011;590;48.772;8.846;2023-08-30T03:57:36;5.97;;;5.67;;
253;SDS011;590;48.772;8.846;2023-08-30T04:00:04;6.83;;;6.07;;
253;SDS011;590;48.772;8.846;2023-08-30T04:02:35;5.83;;;5.53;;
253;SDS011;590;48.772;8.846;2023-08-30T04:05:03;6.93;;;6.53;;
253;SDS011;590;48.772;8.846;2023-08-30T04:07:35;8.67;;;8.17;;
253;SDS011;590;48.772;8.846;2023-08-30T04:10:03;9.10;;;8.60;;
253;SDS011;590;48.772;8.846;2023-08-30T04:12:33;8.60;;;8.10;;
253;SDS011;590;48.772;8.846;2023-08-30T04:15:01;8.53;;;8.03;;
253;SDS011;590;48.772;8.846;2023-08-30T04:17:30;8.00;;;7.60;;
253;SDS011;590;48.772;8.846;2023-08-30T04:19:59;8.03;;;7.63;;
253;SDS011;590;48.772;8.846;2023-08-30T04:22:30;8.80;;;8.30;;
253;SDS011;590;48.772;8.846;2023-08-30T04:25:01;7.60;;;7.20;;
253;SDS011;590;48.772;8.846;2023-08-30T04:27:29;7.10;;;6.70;;
253;SDS011;590;48.772;8.846;2023-08-30T04:29:57;6.43;;;6.03;;
253;SDS011;590;48.772;8.846;2023-08-30T04:32:28;6.43;;;6.03;;
253;SDS011;590;48.772;8.846;2023-08-30T04:34:56;6.67;;;6.27;;
253;SDS011;590;48.772;8.846;2023-08-30T04:37:29;6.20;;;5.90;;
253;SDS011;590;48.772;8.846;2023-08-30T04:39:57;5.97;;;5.67;;
253;SDS011;590;48.772;8.846;2023-08-30T04:42:26;5.27;;;4.97;;
253;SDS011;590;48.772;8.846;2023-08-30T04:44:54;10.23;;;6.90;;
253;SDS011;590;48.772;8.846;2023-08-30T04:47:22;7.47;;;7.07;;
253;SDS011;590;48.772;8.846;2023-08-30T04:49:50;6.80;;;6.40;;
253;SDS011;590;48.772;8.846;2023-08-30T04:52:18;6.90;;;6.50;;
253;SDS011;590;48.772;8.846;2023-08-30T04:54:48;6.97;;;6.57;;
253;SDS011;590;48.772;8.846;2023-08-30T04:57:16;7.40;;;7.00;;
253;SDS011;590;48.772;8.846;2023-08-30T04:59:44;7.20;;;6.80;;
253;SDS011;590;48.772;8.846;2023-08-30T05:02:13;7.07;;;6.67;;
253;SDS011;590;48.772;8.846;2023-08-30T05:04:41;6.37;;;6.00;;
253;SDS011;590;48.772;8.846;2023-08-30T05:07:09;6.03;;;5.73;;
253;SDS011;590;48.772;8.846;2023-08-30T05:09:37;6.90;;;6.50;;
253;SDS011;590;48.772;8.846;2023-08-30T05:12:08;6.67;;;6.27;;
253;SDS011;590;48.772;8.846;2023-08-30T05:14:36;6.90;;;6.50;;
253;SDS011;590;48.772;8.846;2023-08-30T05:17:04;7.13;;;6.73;;
253;SDS011;590;48.772;8.846;2023-08-30T05:19:32;7.67;;;7.27;;
253;SDS011;590;48.772;8.846;2023-08-30T05:22:00;7.10;;;6.70;;
253;SDS011;590;48.772;8.846;2023-08-30T05:24:28;7.50;;;7.10;;
253;SDS011;590;48.772;8.846;2023-08-30T05:26:56;7.30;;;6.90;;
253;SDS011;590;48.772;8.846;2023-08-30T05:29:26;7.30;;;6.90;;
253;SDS011;590;48.772;8.846;2023-08-30T05:31:54;6.67;;;6.27;;
253;SDS011;590;48.772;8.846;2023-08-30T05:34:22;7.33;;;6.93;;
253;SDS011;590;48.772;8.846;2023-08-30T05:36:52;8.57;;;8.07;;
253;SDS011;590;48.772;8.846;2023-08-30T05:39:20;8.13;;;7.73;;
253;SDS011;590;48.772;8.846;2023-08-30T05:41:48;7.00;;;6.60;;
253;SDS011;590;48.772;8.846;2023-08-30T05:44:16;6.57;;;6.17;;
253;SDS011;590;48.772;8.846;2023-08-30T05:46:45;6.50;;;6.10;;
253;SDS011;590;48.772;8.846;2023-08-30T05:49:14;6.90;;;6.50;;
253;SDS011;590;48.772;8.846;2023-08-30T05:51:42;6.93;;;6.53;;
253;SDS011;590;48.772;8.846;2023-08-30T05:54:10;7.17;;;6.77;;
253;SDS011;590;48.772;8.846;2023-08-30T05:56:38;5.83;;;5.53;;
253;SDS011;590;48.772;8.846;2023-08-30T05:59:06;6.80;;;6.40;;
253;SDS011;590;48.772;8.846;2023-08-30T06:01:34;6.77;;;6.37;;
253;SDS011;590;48.772;8.846;2023-08-30T06:04:04;6.53;;;6.13;;
253;SDS011;590;48.772;8.846;2023-08-30T06:06:32;6.80;;;6.40;;
253;SDS011;590;48.772;8.846;2023-08-30T06:09:00;7.47;;;7.07;;
253;SDS011;590;48.772;8.846;2023-08-30T06:11:28;7.50;;;7.10;;
253;SDS011;590;48.772;8.846;2023-08-30T06:13:56;6.80;;;6.40;;
253;SDS011;590;48.772;8.846;2023-08-30T06:16:25;6.97;;;6.57;;
253;SDS011;590;48.772;8.846;2023-08-30T06:18:53;6.93;;;6.53;;
253;SDS011;590;48.772;8.846;2023-08-30T06:21:23;7.43;;;7.03;;
253;SDS011;590;48.772;8.846;2023-08-30T06:23:51;6.43;;;6.03;;
253;SDS011;590;48.772;8.846;2023-08-30T06:26:19;6.90;;;6.50;;
253;SDS011;590;48.772;8.846;2023-08-30T06:28:47;6.30;;;5.97;;
253;SDS011;590;48.772;8.846;2023-08-30T06:31:29;6.70;;;6.30;;
253;SDS011;590;48.772;8.846;2023-08-30T06:33:59;7.00;;;6.60;;
253;SDS011;590;48.772;8.846;2023-08-30T06:36:28;7.57;;;7.17;;
253;SDS011;590;48.772;8.846;2023-08-30T06:38:56;6.10;;;5.80;;
253;SDS011;590;48.772;8.846;2023-08-30T06:41:24;6.60;;;6.20;;
253;SDS011;590;48.772;8.846;2023-08-30T06:43:52;7.37;;;6.97;;
253;SDS011;590;48.772;8.846;2023-08-30T06:46:21;6.90;;;6.50;;
253;SDS011;590;48.772;8.846;2023-08-30T06:48:49;7.10;;;6.70;;
253;SDS011;590;48.772;8.846;2023-08-30T06:51:17;7.07;;;6.67;;
253;SDS011;590;48.772;8.846;2023-08-30T06:53:46;6.70;;;6.30;;
253;SDS011;590;48.772;8.846;2023-08-30T06:56:14;7.63;;;7.23;;
253;SDS011;590;48.772;8.846;2023-08-30T06:58:42;6.60;;;6.20;;
253;SDS011;590;48.772;8.846;2023-08-30T07:01:10;6.50;;;6.10;;
253;SDS011;590;48.772;8.846;2023-08-30T07:03:38;5.77;;;5.47;;
253;SDS011;590;48.772;8.846;2023-08-30T07:06:07;5.03;;;4.73;;
253;SDS011;590;48.772;8.846;2023-08-30T07:08:35;5.80;;;5.50;;
253;SDS011;590;48.772;8.846;2023-08-30T07:11:05;6.40;;;6.00;;
253;SDS011;590;48.772;8.846;2023-08-30T07:13:45;6.50;;;6.10;;
253;SDS011;590;48.772;8.846;2023-08-30T07:16:13;5.43;;;5.13;;
253;SDS011;590;48.772;8.846;2023-08-30T07:18:41;4.90;;;4.60;;
253;SDS011;590;48.772;8.846;2023-08-30T07:21:09;5.40;;;5.10;;
253;SDS011;590;48.772;8.846;2023-08-30T07:23:37;4.63;;;4.33;;
253;SDS011;590;48.772;8.846;2023-08-30T07:26:07;5.80;;;5.50;;
253;SDS011;590;48.772;8.846;2023-08-30T07:28:35;4.80;;;4.50;;
253;SDS011;590;48.772;8.846;2023-08-30T07:31:03;5.07;;;4.77;;
253;SDS011;590;48.772;8.846;2023-08-30T07:33:31;5.10;;;4.80;;
253;SDS011;590;48.772;8.846;2023-08-30T07:36:00;5.30;;;5.00;;
253;SDS011;590;48.772;8.846;2023-08-30T07:38:29;4.57;;;4.27;;
253;SDS011;590;48.772;8.846;2023-08-30T07:40:57;5.37;;;4.50;;
253;SDS011;590;48.772;8.846;2023-08-30T07:43:26;4.83;;;4.53;;
253;SDS011;590;48.772;8.846;2023-08-30T07:45:54;3.80;;;3.60;;
253;SDS011;590;48.772;8.846;2023-08-30T07:48:23;3.93;;;3.73;;
253;SDS011;590;48.772;8.846;2023-08-30T07:50:51;3.97;;;3.77;;
253;SDS011;590;48.772;8.846;2023-08-30T07:53:19;3.90;;;3.70;;
253;SDS011;590;48.772;8.846;2023-08-30T07:55:50;4.43;;;4.13;;
253;SDS011;590;48.772;8.846;2023-08-30T07:58:18;3.70;;;3.50;;
253;SDS011;590;48.772;8.846;2023-08-30T08:00:49;3.97;;;3.77;;
253;SDS011;590;48.772;8.846;2023-08-30T08:03:18;4.40;;;4.10;;
253;SDS011;590;48.772;8.846;2023-08-30T08:05:47;4.63;;;4.33;;
253;SDS011;590;48.772;8.846;2023-08-30T08:08:15;4.00;;;3.80;;
253;SDS011;590;48.772;8.846;2023-08-30T08:10:44;3.90;;;3.70;;
253;SDS011;590;48.772;8.846;2023-08-30T08:13:12;3.77;;;3.57;;
253;SDS011;590;48.772;8.846;2023-08-30T08:15:41;4.37;;;4.07;;
253;SDS011;590;48.772;8.846;2023-08-30T08:18:11;3.80;;;3.60;;
253;SDS011;590;48.772;8.846;2023-08-30T08:20:39;3.47;;;3.30;;
253;SDS011;590;48.772;8.846;2023-08-30T08:23:07;3.80;;;3.60;;
253;SDS011;590;48.772;8.846;2023-08-30T08:25:36;3.80;;;3.60;;
253;SDS011;590;48.772;8.846;2023-08-30T08:28:04;3.20;;;2.93;;
253;SDS011;590;48.772;8.846;2023-08-30T08:30:33;3.20;;;3.00;;
253;SDS011;590;48.772;8.846;2023-08-30T08:33:01;3.73;;;3.30;;
253;SDS011;590;48.772;8.846;2023-08-30T08:35:31;3.20;;;3.00;;
253;SDS011;590;48.772;8.846;2023-08-30T08:37:59;3.60;;;3.40;;
253;SDS011;590;48.772;8.846;2023-08-30T08:40:28;3.03;;;2.83;;
253;SDS011;590;48.772;8.846;2023-08-30T08:43:09;3.00;;;2.80;;
253;SDS011;590;48.772;8.846;2023-08-30T08:45:38;3.00;;;2.80;;
253;SDS011;590;48.772;8.846;2023-08-30T08:48:06;2.80;;;2.60;;
253;SDS011;590;48.772;8.846;2023-08-30T08:50:36;3.40;;;3.20;;
253;SDS011;590;48.772;8.846;2023-08-30T08:53:05;3.40;;;3.03;;
253;SDS011;590;48.772;8.846;2023-08-30T08:55:33;3.50;;;3.30;;
253;SDS011;590;48.772;8.846;2023-08-30T08:58:03;3.27;;;3.07;;
253;SDS011;590;48.772;8.846;2023-08-30T09:00:32;3.50;;;3.30;;
253;SDS011;590;48.772;8.846;2023-08-30T09:03:00;3.77;;;3.57;;
253;SDS011;590;48.772;8.846;2023-08-30T09:05:31;3.10;;;2.90;;
253;SDS011;590;48.772;8.846;2023-08-30T09:08:01;3.10;;;2.90;;
253;SDS011;590;48.772;8.846;2023-08-30T09:10:31;3.10;;;2.90;;
253;SDS011;590;48.772;8.846;2023-08-30T09:12:59;3.27;;;3.07;;
253;SDS011;590;48.772;8.846;2023-08-30T09:15:31;3.40;;;3.20;;
253;SDS011;590;48.772;8.846;2023-08-30T09:17:59;3.10;;;2.90;;
253;SDS011;590;48.772;8.846;2023-08-30T09:20:28;2.70;;;2.50;;
253;SDS011;590;48.772;8.846;2023-08-30T09:22:56;3.10;;;2.90;;
253;SDS011;590;48.772;8.846;2023-08-30T09:25:26;3.13;;;2.93;;
253;SDS011;590;48.772;8.846;2023-08-30T09:27:58;3.37;;;3.17;;
253;SDS011;590;48.772;8.846;2023-08-30T09:30:27;2.70;;;2.50;;
253;SDS011;590;48.772;8.846;2023-08-30T09:33:00;2.80;;;2.60;;
253;SDS011;590;48.772;8.846;2023-08-30T09:35:29;2.70;;;2.50;;
253;SDS011;590;48.772;8.846;2023-08-30T09:37:57;3.10;;;2.90;;
253;SDS011;590;48.772;8.846;2023-08-30T09:40:27;3.27;;;3.07;;
253;SDS011;590;48.772;8.846;2023-08-30T09:42:57;3.10;;;2.90;;
253;SDS011;590;48.772;8.846;2023-08-30T09:45:39;3.13;;;2.93;;
253;SDS011;590;48.772;8.846;2023-08-30T09:48:07;3.30;;;3.10;;
253;SDS011;590;48.772;8.846;2023-08-30T09:50:36;3.30;;;3.00;;
253;SDS011;590;48.772;8.846;2023-08-30T09:53:05;2.67;;;2.47;;
253;SDS011;590;48.772;8.846;2023-08-30T09:55:37;3.20;;;3.00;;
253;SDS011;590;48.772;8.846;2023-08-30T09:58:07;2.80;;;2.60;;
253;SDS011;590;48.772;8.846;2023-08-30T10:00:35;3.10;;;2.90;;
253;SDS011;590;48.772;8.846;2023-08-30T10:03:05;2.50;;;2.30;;
253;SDS011;590;48.772;8.846;2023-08-30T10:05:37;2.77;;;2.57;;
253;SDS011;590;48.772;8.846;2023-08-30T10:08:06;2.50;;;2.30;;
253;SDS011;590;48.772;8.846;2023-08-30T10:10:35;3.00;;;2.80;;
253;SDS011;590;48.772;8.846;2023-08-30T10:13:05;2.63;;;2.43;;
253;SDS011;590;48.772;8.846;2023-08-30T10:15:38;3.20;;;3.00;;
253;SDS011;590;48.772;8.846;2023-08-30T10:18:10;3.07;;;2.87;;
253;SDS011;590;48.772;8.846;2023-08-30T10:20:42;2.50;;;2.30;;
253;SDS011;590;48.772;8.846;2023-08-30T10:23:11;3.07;;;2.87;;
253;SDS011;590;48.772;8.846;2023-08-30T10:25:42;3.00;;;2.80;;
253;SDS011;590;48.772;8.846;2023-08-30T10:28:11;3.43;;;3.23;;
253;SDS011;590;48.772;8.846;2023-08-30T10:30:39;2.97;;;2.77;;
253;SDS011;590;48.772;8.846;2023-08-30T10:33:11;2.63;;;2.53;;
253;SDS011;590;48.772;8.846;2023-08-30T10:35:46;2.83;;;2.63;;
253;SDS011;590;48.772;8.846;2023-08-30T10:38:24;4.30;;;3.50;;
253;SDS011;590;48.772;8.846;2023-08-30T10:40:54;3.40;;;3.20;;
253;SDS011;590;48.772;8.846;2023-08-30T10:43:29;5.20;;;4.13;;
253;SDS011;590;48.772;8.846;2023-08-30T10:46:01;4.47;;;4.20;;
253;SDS011;590;48.772;8.846;2023-08-30T10:48:34;4.33;;;4.03;;
253;SDS011;590;48.772;8.846;2023-08-30T10:51:04;4.30;;;4.00;;
253;SDS011;590;48.772;8.846;2023-08-30T10:53:33;4.53;;;4.23;;
253;SDS011;590;48.772;8.846;2023-08-30T10:56:10;4.07;;;3.87;;
253;SDS011;590;48.772;8.846;2023-08-30T10:58:41;5.07;;;4.77;;
253;SDS011;590;48.772;8.846;2023-08-30T11:01:10;5.20;;;4.90;;
253;SDS011;590;48.772;8.846;2023-08-30T11:03:40;5.13;;;4.83;;
253;SDS011;590;48.772;8.846;2023-08-30T11:06:13;5.00;;;4.70;;
253;SDS011;590;48.772;8.846;2023-08-30T11:08:42;4.63;;;4.33;;
253;SDS011;590;48.772;8.846;2023-08-30T11:11:12;5.10;;;4.80;;
253;SDS011;590;48.772;8.846;2023-08-30T11:13:41;5.27;;;4.97;;
253;SDS011;590;48.772;8.846;2023-08-30T11:16:09;5.13;;;4.83;;
253;SDS011;590;48.772;8.846;2023-08-30T11:18:38;4.37;;;4.07;;
253;SDS011;590;48.772;8.846;2023-08-30T11:21:08;4.73;;;4.43;;
253;SDS011;590;48.772;8.846;2023-08-30T11:23:38;4.77;;;4.47;;
253;SDS011;590;48.772;8.846;2023-08-30T11:26:07;4.80;;;4.50;;
253;SDS011;590;48.772;8.846;2023-08-30T11:28:38;5.10;;;4.80;;
253;SDS011;590;48.772;8.846;2023-08-30T11:31:17;4.40;;;4.10;;
253;SDS011;590;48.772;8.846;2023-08-30T11:33:50;4.60;;;4.30;;
253;SDS011;590;48.772;8.846;2023-08-30T11:36:19;3.20;;;3.00;;
253;SDS011;590;48.772;8.846;2023-08-30T11:38:48;3.53;;;3.33;;
253;SDS011;590;48.772;8.846;2023-08-30T11:41:17;3.80;;;3.60;;
253;SDS011;590;48.772;8.846;2023-08-30T11:43:50;3.70;;;3.50;;
253;SDS011;590;48.772;8.846;2023-08-30T11:46:19;3.53;;;3.33;;
253;SDS011;590;48.772;8.846;2023-08-30T11:48:48;3.50;;;3.30;;
253;SDS011;590;48.772;8.846;2023-08-30T11:51:18;4.70;;;4.40;;
253;SDS011;590;48.772;8.846;2023-08-30T11:53:47;3.57;;;3.37;;
253;SDS011;590;48.772;8.846;2023-08-30T11:56:15;4.30;;;4.00;;
253;SDS011;590;48.772;8.846;2023-08-30T11:58:44;4.37;;;4.07;;
253;SDS011;590;48.772;8.846;2023-08-30T12:01:13;4.03;;;3.83;;
253;SDS011;590;48.772;8.846;2023-08-30T12:03:42;4.50;;;4.20;;
253;SDS011;590;48.772;8.846;2023-08-30T12:06:15;3.90;;;3.70;;
253;SDS011;590;48.772;8.846;2023-08-30T12:08:44;3.53;;;3.33;;
253;SDS011;590;48.772;8.846;2023-08-30T12:11:18;3.53;;;3.33;;
253;SDS011;590;48.772;8.846;2023-08-30T12:13:47;3.33;;;3.13;;
253;SDS011;590;48.772;8.846;2023-08-30T12:16:16;3.70;;;3.50;;
253;SDS011;590;48.772;8.846;2023-08-30T12:18:47;5.27;;;3.60;;
253;SDS011;590;48.772;8.846;2023-08-30T12:21:15;3.73;;;3.53;;
253;SDS011;590;48.772;8.846;2023-08-30T12:23:43;3.57;;;3.37;;
253;SDS011;590;48.772;8.846;2023-08-30T12:26:11;4.10;;;3.90;;
253;SDS011;590;48.772;8.846;2023-08-30T12:28:40;3.33;;;3.13;;
253;SDS011;590;48.772;8.846;2023-08-30T12:31:11;3.67;;;3.40;;
253;SDS011;590;48.772;8.846;2023-08-30T12:33:40;3.33;;;3.13;;
253;SDS011;590;48.772;8.846;2023-08-30T12:36:08;3.40;;;3.20;;
253;SDS011;590;48.772;8.846;2023-08-30T12:38:36;3.67;;;3.47;;
253;SDS011;590;48.772;8.846;2023-08-30T12:41:04;3.90;;;3.70;;
253;SDS011;590;48.772;8.846;2023-08-30T12:43:32;3.53;;;3.33;;
253;SDS011;590;48.772;8.846;2023-08-30T12:46:00;2.73;;;2.53;;
253;SDS011;590;48.772;8.846;2023-08-30T12:48:30;3.07;;;2.87;;
253;SDS011;590;48.772;8.846;2023-08-30T12:51:00;2.97;;;2.77;;
253;SDS011;590;48.772;8.846;2023-08-30T12:53:30;2.83;;;2.63;;
253;SDS011;590;48.772;8.846;2023-08-30T12:55:58;3.43;;;3.23;;
253;SDS011;590;48.772;8.846;2023-08-30T12:58:26;3.30;;;3.10;;
253;SDS011;590;48.772;8.846;2023-08-30T13:00:54;3.37;;;3.17;;
253;SDS011;590;48.772;8.846;2023-08-30T13:03:22;3.00;;;2.80;;
253;SDS011;590;48.772;8.846;2023-08-30T13:05:50;3.10;;;2.90;;
253;SDS011;590;48.772;8.846;2023-08-30T13:08:19;3.37;;;3.17;;
253;SDS011;590;48.772;8.846;2023-08-30T13:10:47;3.23;;;3.03;;
253;SDS011;590;48.772;8.846;2023-08-30T13:13:15;3.13;;;2.93;;
253;SDS011;590;48.772;8.846;2023-08-30T13:15:43;3.07;;;2.87;;
253;SDS011;590;48.772;8.846;2023-08-30T13:18:11;3.07;;;2.87;;
253;SDS011;590;48.772;8.846;2023-08-30T13:20:39;2.67;;;2.47;;
253;SDS011;590;48.772;8.846;2023-08-30T13:23:08;2.60;;;2.40;;
253;SDS011;590;48.772;8.846;2023-08-30T13:25:39;3.07;;;2.87;;
253;SDS011;590;48.772;8.846;2023-08-30T13:28:07;2.43;;;2.23;;
253;SDS011;590;48.772;8.846;2023-08-30T13:30:35;2.60;;;2.40;;
253;SDS011;590;48.772;8.846;2023-08-30T13:33:04;2.90;;;2.70;;
253;SDS011;590;48.772;8.846;2023-08-30T13:35:32;3.20;;;3.00;;
253;SDS011;590;48.772;8.846;2023-08-30T13:38:00;2.67;;;2.47;;
253;SDS011;590;48.772;8.846;2023-08-30T13:40:29;3.03;;;2.83;;
253;SDS011;590;48.772;8.846;2023-08-30T13:42:58;3.10;;;2.90;;
253;SDS011;590;48.772;8.846;2023-08-30T13:45:26;2.70;;;2.50;;
253;SDS011;590;48.772;8.846;2023-08-30T13:47:55;3.00;;;2.80;;
253;SDS011;590;48.772;8.846;2023-08-30T13:50:23;3.00;;;2.80;;
253;SDS011;590;48.772;8.846;2023-08-30T13:52:53;3.17;;;2.97;;
253;SDS011;590;48.772;8.846;2023-08-30T13:55:21;2.43;;;2.23;;
253;SDS011;590;48.772;8.846;2023-08-30T13:57:50;2.53;;;2.33;;
253;SDS011;590;48.772;8.846;2023-08-30T14:00:19;3.07;;;2.87;;
253;SDS011;590;48.772;8.846;2023-08-30T14:02:48;2.77;;;2.60;;
253;SDS011;590;48.772;8.846;2023-08-30T14:05:16;2.90;;;2.70;;
253;SDS011;590;48.772;8.846;2023-08-30T14:07:44;3.70;;;3.50;;
253;SDS011;590;48.772;8.846;2023-08-30T14:10:13;3.00;;;2.80;;
253;SDS011;590;48.772;8.846;2023-08-30T14:12:46;3.40;;;3.20;;
253;SDS011;590;48.772;8.846;2023-08-30T14:15:14;3.10;;;2.90;;
253;SDS011;590;48.772;8.846;2023-08-30T14:17:44;3.10;;;2.90;;
253;SDS011;590;48.772;8.846;2023-08-30T14:20:13;3.30;;;3.10;;
253;SDS011;590;48.772;8.846;2023-08-30T14:22:41;5.07;;;4.53;;
253;SDS011;590;48.772;8.846;2023-08-30T14:25:09;3.50;;;2.93;;
253;SDS011;590;48.772;8.846;2023-08-30T14:27:39;3.23;;;3.03;;
253;SDS011;590;48.772;8.846;2023-08-30T14:30:07;3.30;;;3.13;;
253;SDS011;590;48.772;8.846;2023-08-30T14:32:36;3.40;;;3.20;;
253;SDS011;590;48.772;8.846;2023-08-30T14:35:06;3.50;;;3.30;;
253;SDS011;590;48.772;8.846;2023-08-30T14:37:35;3.80;;;3.60;;
253;SDS011;590;48.772;8.846;2023-08-30T14:40:04;3.70;;;3.50;;
253;SDS011;590;48.772;8.846;2023-08-30T14:42:33;2.80;;;2.60;;
253;SDS011;590;48.772;8.846;2023-08-30T14:45:01;4.20;;;3.90;;
253;SDS011;590;48.772;8.846;2023-08-30T14:47:29;4.40;;;4.10;;
253;SDS011;590;48.772;8.846;2023-08-30T14:49:58;3.23;;;3.03;;
253;SDS011;590;48.772;8.846;2023-08-30T14:52:29;3.80;;;2.60;;
253;SDS011;590;48.772;8.846;2023-08-30T14:54:57;3.40;;;3.20;;
253;SDS011;590;48.772;8.846;2023-08-30T14:57:25;3.10;;;2.90;;
253;SDS011;590;48.772;8.846;2023-08-30T14:59:53;3.13;;;2.93;;
253;SDS011;590;48.772;8.846;2023-08-30T15:02:21;3.40;;;3.20;;
253;SDS011;590;48.772;8.846;2023-08-30T15:04:50;3.20;;;3.00;;
253;SDS011;590;48.772;8.846;2023-08-30T15:07:18;2.80;;;2.60;;
253;SDS011;590;48.772;8.846;2023-08-30T15:09:47;2.70;;;2.50;;
253;SDS011;590;48.772;8.846;2023-08-30T15:12:16;3.40;;;3.20;;
253;SDS011;590;48.772;8.846;2023-08-30T15:15:00;2.40;;;2.20;;
253;SDS011;590;48.772;8.846;2023-08-30T15:17:29;2.97;;;2.77;;
253;SDS011;590;48.772;8.846;2023-08-30T15:19:57;3.00;;;2.80;;
253;SDS011;590;48.772;8.846;2023-08-30T15:22:25;3.10;;;2.90;;
253;SDS011;590;48.772;8.846;2023-08-30T15:24:54;3.30;;;3.10;;
253;SDS011;590;48.772;8.846;2023-08-30T15:27:22;3.50;;;3.30;;
253;SDS011;590;48.772;8.846;2023-08-30T15:29:50;3.20;;;3.00;;
253;SDS011;590;48.772;8.846;2023-08-30T15:32:21;2.70;;;2.50;;
253;SDS011;590;48.772;8.846;2023-08-30T15:34:51;2.87;;;2.67;;
253;SDS011;590;48.772;8.846;2023-08-30T15:37:19;3.30;;;3.10;;
253;SDS011;590;48.772;8.846;2023-08-30T15:39:47;3.33;;;3.13;;
253;SDS011;590;48.772;8.846;2023-08-30T15:42:30;2.90;;;2.70;;
253;SDS011;590;48.772;8.846;2023-08-30T15:44:58;2.80;;;2.63;;
253;SDS011;590;48.772;8.846;2023-08-30T15:47:27;2.80;;;2.60;;
253;SDS011;590;48.772;8.846;2023-08-30T15:49:55;2.70;;;2.50;;
253;SDS011;590;48.772;8.846;2023-08-30T15:52:23;8.23;;;3.27;;
253;SDS011;590;48.772;8.846;2023-08-30T15:54:51;2.90;;;2.73;;
253;SDS011;590;48.772;8.846;2023-08-30T15:57:22;2.37;;;2.17;;